createdAt,value
2019-04-21T00:01:14.567Z,8.87
2019-04-21T00:03:52.120Z,8.27
2019-04-21T00:06:41.019Z,8.57
2019-04-21T00:09:19.228Z,8.80
2019-04-21T00:11:40.976Z,8.87
2019-04-21T00:14:05.633Z,8.00
2019-04-21T00:16:36.417Z,8.67
2019-04-21T00:19:17.281Z,10.60
2019-04-21T00:21:49.460Z,8.07
2019-04-21T00:24:32.334Z,8.87
2019-04-21T00:27:05.610Z,10.97
2019-04-21T00:29:45.705Z,9.27
2019-04-21T00:32:06.903Z,12.40
2019-04-21T00:34:24.085Z,9.17
2019-04-21T00:37:08.314Z,9.70
2019-04-21T00:39:57.775Z,10.07
2019-04-21T00:42:18.164Z,11.10
2019-04-21T00:44:44.190Z,10.80
2019-04-21T00:47:26.711Z,10.73
2019-04-21T00:49:57.861Z,10.20
2019-04-21T00:55:23.047Z,11.97
2019-04-21T00:57:51.313Z,10.70
2019-04-21T01:00:18.767Z,9.50
2019-04-21T01:03:18.601Z,11.53
2019-04-21T01:05:54.785Z,10.97
2019-04-21T01:08:23.481Z,10.60
2019-04-21T01:10:43.971Z,10.63
2019-04-21T01:13:29.415Z,13.00
2019-04-21T01:16:15.541Z,10.93
2019-04-21T01:18:31.402Z,11.27
2019-04-21T01:20:38.191Z,10.83
2019-04-21T01:23:08.576Z,13.73
2019-04-21T01:25:50.365Z,12.13
2019-04-21T01:28:29.949Z,11.40
2019-04-21T01:31:03.440Z,14.00
2019-04-21T01:33:39.785Z,13.03
2019-04-21T01:36:11.361Z,12.23
2019-04-21T01:39:03.452Z,11.33
2019-04-21T01:41:19.856Z,13.57
2019-04-21T01:43:45.764Z,15.07
2019-04-21T01:46:15.207Z,12.43
2019-04-21T01:48:44.376Z,12.57
2019-04-21T01:51:23.557Z,13.47
2019-04-21T01:54:22.029Z,13.10
2019-04-21T01:57:04.364Z,11.57
2019-04-21T01:59:32.067Z,12.63
2019-04-21T02:02:10.754Z,14.47
2019-04-21T02:04:54.311Z,13.37
2019-04-21T02:07:17.651Z,12.97
2019-04-21T02:09:49.241Z,14.00
2019-04-21T02:12:20.483Z,16.20
2019-04-21T02:15:01.487Z,12.23
2019-04-21T02:17:23.742Z,14.13
2019-04-21T02:19:53.800Z,13.43
2019-04-21T02:22:41.034Z,16.00
2019-04-21T02:25:05.987Z,14.47
2019-04-21T02:27:31.024Z,16.23
2019-04-21T02:30:10.196Z,14.60
2019-04-21T02:32:47.888Z,14.60
2019-04-21T02:40:36.247Z,14.93
2019-04-21T02:48:04.526Z,14.83
2019-04-21T02:50:33.968Z,15.53
2019-04-21T02:53:05.503Z,15.50
2019-04-21T03:01:07.495Z,17.50
2019-04-21T03:03:51.379Z,16.90
2019-04-21T03:06:27.047Z,17.80
2019-04-21T03:09:12.311Z,17.93
2019-04-21T03:11:21.988Z,15.90
2019-04-21T03:14:05.539Z,14.83
2019-04-21T03:24:15.276Z,17.37
2019-04-21T03:29:12.032Z,16.83
2019-04-21T03:39:18.381Z,16.23
2019-04-21T03:42:04.541Z,15.83
2019-04-21T03:44:22.874Z,15.10
2019-04-21T03:46:56.091Z,17.10
2019-04-21T03:49:47.542Z,15.40
2019-04-21T03:52:03.267Z,19.37
2019-04-21T03:54:37.049Z,17.47
2019-04-21T03:59:38.828Z,15.70
2019-04-21T04:02:42.633Z,15.97
2019-04-21T04:05:14.865Z,16.17
2019-04-21T04:10:32.063Z,16.33
2019-04-21T04:12:54.648Z,17.33
2019-04-21T04:15:31.153Z,16.60
2019-04-21T04:17:54.322Z,16.30
2019-04-21T04:20:28.271Z,18.87
2019-04-21T04:23:03.266Z,15.83
2019-04-21T04:28:14.220Z,16.07
2019-04-21T04:30:42.028Z,18.63
2019-04-21T04:33:08.029Z,15.53
2019-04-21T04:35:57.887Z,15.83
2019-04-21T04:38:24.078Z,16.27
2019-04-21T04:41:01.800Z,16.90
2019-04-21T04:43:30.407Z,16.40
2019-04-21T04:45:53.649Z,16.87
2019-04-21T04:48:30.462Z,15.57
2019-04-21T04:53:40.949Z,18.37
2019-04-21T04:56:12.287Z,17.80
2019-04-21T05:03:48.952Z,16.57
2019-04-21T05:06:53.913Z,16.30
2019-04-21T05:11:44.339Z,18.63
2019-04-21T05:14:14.810Z,18.53
2019-04-21T05:21:46.225Z,19.43
2019-04-21T05:24:00.032Z,22.93
2019-04-21T05:26:29.998Z,20.43
2019-04-21T05:29:00.388Z,18.00
2019-04-21T05:31:53.596Z,17.13
2019-04-21T05:34:26.049Z,19.90
2019-04-21T05:37:20.103Z,22.00
2019-04-21T05:39:49.262Z,17.50
2019-04-21T05:42:23.883Z,18.37
2019-04-21T05:47:48.658Z,16.50
2019-04-21T05:50:14.717Z,18.17
2019-04-21T05:52:44.696Z,16.93
2019-04-21T05:55:34.687Z,20.00
2019-04-21T05:57:57.297Z,18.47
2019-04-21T06:03:09.917Z,18.20
2019-04-21T06:05:49.520Z,17.57
2019-04-21T06:08:16.000Z,17.93
2019-04-21T06:10:50.888Z,19.10
2019-04-21T06:13:19.877Z,16.87
2019-04-21T06:15:50.017Z,20.83
2019-04-21T06:18:20.346Z,19.27
2019-04-21T06:20:54.708Z,17.43
2019-04-21T06:23:25.461Z,18.97
2019-04-21T06:26:07.325Z,18.80
2019-04-21T06:28:35.945Z,18.43
2019-04-21T06:33:39.441Z,17.67
2019-04-21T06:41:31.435Z,21.33
2019-04-21T06:44:08.217Z,18.70
2019-04-21T06:46:45.297Z,18.93
2019-04-21T06:49:02.707Z,18.37
2019-04-21T06:51:35.802Z,19.33
2019-04-21T06:54:17.467Z,18.27
2019-04-21T06:59:10.460Z,18.43
2019-04-21T07:01:55.306Z,19.43
2019-04-21T07:04:25.426Z,19.73
2019-04-21T07:09:26.673Z,18.20
2019-04-21T07:11:56.667Z,17.53
2019-04-21T07:17:06.594Z,18.40
2019-04-21T07:19:35.173Z,18.83
2019-04-21T07:22:05.876Z,20.77
2019-04-21T07:24:37.364Z,18.40
2019-04-21T07:27:13.422Z,18.80
2019-04-21T07:32:19.037Z,18.33
2019-04-21T07:34:46.134Z,18.10
2019-04-21T07:37:12.199Z,18.13
2019-04-21T07:39:43.922Z,18.80
2019-04-21T07:42:13.745Z,19.60
2019-04-21T07:44:46.086Z,19.57
2019-04-21T07:47:26.790Z,18.23
2019-04-21T07:50:07.462Z,18.97
2019-04-21T07:52:53.253Z,22.43
2019-04-21T07:57:53.159Z,17.77
2019-04-21T08:03:05.121Z,18.27
2019-04-21T08:05:35.553Z,18.93
2019-04-21T08:08:06.508Z,19.53
2019-04-21T08:10:33.290Z,20.57
2019-04-21T08:13:12.222Z,19.73
2019-04-21T08:18:13.509Z,19.60
2019-04-21T08:20:41.864Z,17.77
2019-04-21T08:23:21.614Z,19.50
2019-04-21T08:28:26.484Z,20.57
2019-04-21T08:30:55.284Z,18.77
2019-04-21T08:33:33.723Z,20.00
2019-04-21T08:36:11.269Z,21.93
2019-04-21T08:38:38.850Z,19.93
2019-04-21T08:46:08.127Z,17.50
2019-04-21T08:48:47.850Z,18.23
2019-04-21T08:53:48.956Z,20.03
2019-04-21T08:56:31.910Z,17.50
2019-04-21T08:59:25.523Z,21.80
2019-04-21T09:02:03.185Z,18.67
2019-04-21T09:04:28.546Z,18.17
2019-04-21T09:09:35.351Z,19.07
2019-04-21T09:12:09.458Z,19.63
2019-04-21T09:14:44.757Z,17.93
2019-04-21T09:17:07.563Z,18.03
2019-04-21T09:19:51.815Z,19.33
2019-04-21T09:22:10.920Z,19.97
2019-04-21T09:24:50.158Z,18.63
2019-04-21T09:27:14.313Z,16.70
2019-04-21T09:29:39.351Z,18.47
2019-04-21T09:32:12.361Z,17.60
2019-04-21T09:34:42.365Z,19.85
2019-04-21T09:37:24.323Z,20.93
2019-04-21T09:39:48.083Z,19.80
2019-04-21T09:42:16.786Z,19.37
2019-04-21T09:44:50.516Z,22.42
2019-04-21T09:47:23.439Z,18.67
2019-04-21T09:49:51.946Z,17.73
2019-04-21T09:52:26.605Z,16.63
2019-04-21T09:55:03.898Z,18.12
2019-04-21T09:57:37.124Z,16.00
2019-04-21T10:00:07.906Z,17.63
2019-04-21T10:02:40.034Z,17.20
2019-04-21T10:05:03.071Z,17.97
2019-04-21T10:07:38.274Z,13.60
2019-04-21T10:10:08.201Z,16.10
2019-04-21T10:12:38.795Z,14.23
2019-04-21T10:15:10.553Z,13.73
2019-04-21T10:17:44.699Z,17.23
2019-04-21T10:20:15.326Z,17.12
2019-04-21T10:22:46.774Z,19.07
2019-04-21T10:25:18.564Z,16.20
2019-04-21T10:27:49.502Z,14.78
2019-04-21T10:30:22.487Z,15.25
2019-04-21T10:32:54.271Z,15.98
2019-04-21T10:35:26.197Z,15.70
2019-04-21T10:38:06.744Z,17.37
2019-04-21T10:40:32.116Z,16.97
2019-04-21T10:43:01.006Z,13.95
2019-04-21T10:45:32.699Z,15.80
2019-04-21T10:48:03.284Z,14.10
2019-04-21T10:50:34.844Z,16.00
2019-04-21T10:53:13.400Z,13.50
2019-04-21T10:55:58.987Z,17.25
2019-04-21T10:58:36.664Z,15.48
2019-04-21T11:01:27.189Z,16.02
2019-04-21T11:04:19.557Z,16.90
2019-04-21T11:06:39.588Z,15.45
2019-04-21T11:09:10.867Z,15.58
2019-04-21T11:11:44.562Z,17.33
2019-04-21T11:14:13.865Z,14.53
2019-04-21T11:16:46.295Z,18.02
2019-04-21T11:19:17.839Z,17.60
2019-04-21T11:21:49.315Z,15.60
2019-04-21T11:24:20.893Z,16.93
2019-04-21T11:26:51.955Z,15.32
2019-04-21T11:29:23.306Z,17.87
2019-04-21T11:31:54.863Z,16.23
2019-04-21T11:34:25.392Z,17.10
2019-04-21T11:36:56.351Z,15.93
2019-04-21T11:39:39.119Z,15.38
2019-04-21T11:42:07.759Z,16.23
2019-04-21T11:44:39.506Z,13.55
2019-04-21T11:47:18.484Z,13.13
2019-04-21T11:49:49.311Z,13.32
2019-04-21T11:52:20.796Z,15.97
2019-04-21T11:54:51.160Z,14.17
2019-04-21T11:57:27.620Z,12.90
2019-04-21T11:59:53.703Z,12.45
2019-04-21T12:02:24.092Z,14.40
2019-04-21T12:04:54.516Z,13.00
2019-04-21T12:07:25.135Z,12.87
2019-04-21T12:09:55.631Z,12.13
2019-04-21T12:12:27.414Z,13.23
2019-04-21T12:14:57.844Z,13.48
2019-04-21T12:17:34.142Z,15.80
2019-04-21T12:20:04.751Z,13.57
2019-04-21T12:22:35.696Z,13.80
2019-04-21T12:25:09.739Z,15.53
2019-04-21T12:27:41.524Z,17.33
2019-04-21T12:30:13.734Z,13.83
2019-04-21T12:32:51.917Z,12.23
2019-04-21T12:35:23.774Z,11.90
2019-04-21T12:37:55.017Z,14.53
2019-04-21T12:40:26.532Z,13.03
2019-04-21T12:42:57.073Z,12.60
2019-04-21T12:45:28.257Z,12.83
2019-04-21T12:47:59.965Z,16.17
2019-04-21T12:50:31.948Z,11.90
2019-04-21T12:53:03.318Z,14.75
2019-04-21T12:55:38.427Z,12.60
2019-04-21T12:58:05.956Z,12.37
2019-04-21T13:00:36.756Z,12.03
2019-04-21T13:03:07.786Z,12.87
2019-04-21T13:05:38.256Z,11.17
2019-04-21T13:08:09.237Z,12.23
2019-04-21T13:10:40.214Z,14.60
2019-04-21T13:13:10.682Z,10.98
2019-04-21T13:15:43.345Z,12.00
2019-04-21T13:18:14.812Z,14.93
2019-04-21T13:20:46.376Z,12.20
2019-04-21T13:23:16.880Z,11.53
2019-04-21T13:25:47.855Z,14.77
2019-04-21T13:28:18.766Z,14.50
2019-04-21T13:30:50.611Z,11.27
2019-04-21T13:33:21.172Z,14.10
2019-04-21T13:35:53.030Z,12.50
2019-04-21T13:38:34.587Z,14.97
2019-04-21T13:41:24.698Z,11.37
2019-04-21T13:43:41.481Z,11.90
2019-04-21T13:46:12.244Z,11.77
2019-04-21T13:48:42.676Z,12.07
2019-04-21T13:51:13.439Z,12.87
2019-04-21T13:53:44.012Z,10.77
2019-04-21T13:56:14.432Z,11.57
2019-04-21T13:58:46.195Z,10.80
2019-04-21T14:01:18.065Z,12.27
2019-04-21T14:03:49.418Z,12.13
2019-04-21T14:06:20.409Z,10.13
2019-04-21T14:08:51.188Z,10.50
2019-04-21T14:11:23.063Z,11.97
2019-04-21T14:13:54.406Z,9.47
2019-04-21T14:16:26.505Z,11.25
2019-04-21T14:18:57.271Z,10.20
2019-04-21T14:21:27.700Z,9.67
2019-04-21T14:23:59.483Z,8.80
2019-04-21T14:26:30.114Z,8.93
2019-04-21T14:29:01.571Z,11.47
2019-04-21T14:31:34.522Z,8.77
2019-04-21T14:34:05.992Z,9.33
2019-04-21T14:36:37.053Z,11.93
2019-04-21T14:39:10.667Z,11.60
2019-04-21T14:41:42.197Z,8.90
2019-04-21T14:44:13.176Z,9.77
2019-04-21T14:46:49.190Z,8.67
2019-04-21T14:49:41.705Z,8.50
2019-04-21T14:52:25.283Z,12.03
2019-04-21T14:55:03.042Z,9.07
2019-04-21T14:57:33.590Z,10.07
2019-04-21T15:00:07.028Z,10.20
2019-04-21T15:02:38.157Z,8.43
2019-04-21T15:05:09.448Z,9.40
2019-04-21T15:07:41.310Z,8.73
2019-04-21T15:10:18.468Z,10.20
2019-04-21T15:12:45.658Z,10.60
2019-04-21T15:15:16.357Z,9.10
2019-04-21T15:17:46.769Z,7.97
2019-04-21T15:20:19.337Z,8.13
2019-04-21T15:22:50.398Z,8.43
2019-04-21T15:25:21.932Z,9.27
2019-04-21T15:27:52.823Z,10.17
2019-04-21T15:30:24.683Z,8.33
2019-04-21T15:32:55.218Z,7.80
2019-04-21T15:35:26.915Z,8.73
2019-04-21T15:37:58.008Z,9.47
2019-04-21T15:40:39.874Z,8.70
2019-04-21T15:43:02.277Z,10.28
2019-04-21T15:45:32.865Z,8.83
2019-04-21T15:48:04.303Z,10.30
2019-04-21T15:50:35.665Z,9.08
2019-04-21T15:53:07.782Z,8.93
2019-04-21T15:55:48.601Z,8.33
2019-04-21T15:58:56.793Z,9.93
2019-04-21T16:01:39.038Z,8.50
2019-04-21T16:04:10.689Z,11.03
2019-04-21T16:06:43.548Z,9.58
2019-04-21T16:09:16.709Z,9.47
2019-04-21T16:11:46.313Z,8.33
2019-04-21T16:14:16.773Z,9.97
2019-04-21T16:16:49.137Z,8.50
2019-04-21T16:19:20.223Z,8.87
2019-04-21T16:21:50.746Z,8.53
2019-04-21T16:24:21.322Z,8.57
2019-04-21T16:26:52.957Z,8.07
2019-04-21T16:29:24.888Z,8.70
2019-04-21T16:31:55.498Z,8.43
2019-04-21T16:34:37.883Z,8.00
2019-04-21T16:36:57.833Z,8.80
2019-04-21T16:39:29.335Z,8.10
2019-04-21T16:42:00.390Z,11.20
2019-04-21T16:44:31.277Z,10.93
2019-04-21T16:47:03.378Z,8.20
2019-04-21T16:49:33.870Z,6.97
2019-04-21T16:52:18.265Z,7.63
2019-04-21T16:54:52.117Z,7.70
2019-04-21T16:57:59.612Z,8.47
2019-04-21T17:00:31.707Z,9.57
2019-04-21T17:02:56.692Z,7.47
2019-04-21T17:05:28.162Z,12.43
2019-04-21T17:07:59.689Z,10.80
2019-04-21T17:10:30.715Z,6.63
2019-04-21T17:13:02.340Z,6.73
2019-04-21T17:15:51.567Z,7.53
2019-04-21T17:18:22.786Z,6.73
2019-04-21T17:20:46.727Z,8.63
2019-04-21T17:23:11.481Z,7.23
2019-04-21T17:25:43.349Z,10.93
2019-04-21T17:28:13.794Z,7.60
2019-04-21T17:30:44.417Z,6.80
2019-04-21T17:33:21.181Z,6.23
2019-04-21T17:35:47.148Z,5.90
2019-04-21T17:38:18.498Z,5.77
2019-04-21T17:40:49.541Z,6.27
2019-04-21T17:43:21.656Z,8.70
2019-04-21T17:45:53.209Z,6.83
2019-04-21T17:48:25.053Z,5.07
2019-04-21T17:51:01.259Z,7.43
2019-04-21T17:53:45.652Z,23.07
2019-04-21T17:56:31.554Z,6.97
2019-04-21T17:59:02.861Z,7.93
2019-04-21T18:01:40.601Z,5.17
2019-04-21T18:04:11.100Z,7.50
2019-04-21T18:07:17.251Z,12.30
2019-04-21T18:10:02.066Z,7.17
2019-04-21T18:12:26.228Z,7.17
2019-04-21T18:14:54.133Z,7.23
2019-04-21T18:17:16.357Z,16.43
2019-04-21T18:19:49.177Z,9.47
2019-04-21T18:22:43.562Z,9.23
2019-04-21T18:25:28.180Z,10.23
2019-04-21T18:27:48.267Z,8.47
2019-04-21T18:30:44.865Z,6.73
2019-04-21T18:33:22.300Z,8.33
2019-04-21T18:36:13.427Z,8.43
2019-04-21T18:39:10.250Z,9.63
2019-04-21T18:41:30.289Z,13.03
2019-04-21T18:44:32.147Z,7.23
2019-04-21T18:47:10.259Z,9.70
2019-04-21T18:49:29.136Z,17.77
2019-04-21T18:52:22.246Z,8.10
2019-04-21T18:55:00.186Z,10.30
2019-04-21T18:57:28.678Z,9.90
2019-04-21T18:59:51.170Z,9.97
2019-04-21T19:02:23.992Z,9.83
2019-04-21T19:05:00.136Z,14.37
2019-04-21T19:07:45.446Z,8.37
2019-04-21T19:10:25.153Z,11.07
2019-04-21T19:13:20.293Z,11.43
2019-04-21T19:15:16.303Z,12.90
2019-04-21T19:20:25.965Z,16.73
2019-04-21T19:22:52.443Z,23.00
2019-04-21T19:25:39.215Z,29.03
2019-04-21T19:27:59.041Z,30.27
2019-04-21T19:30:39.910Z,24.70
2019-04-21T19:33:08.932Z,20.97
2019-04-21T19:35:23.619Z,20.67
2019-04-21T19:37:59.402Z,18.20
2019-04-21T19:40:40.877Z,14.13
2019-04-21T19:43:09.408Z,13.80
2019-04-21T19:45:43.646Z,22.17
2019-04-21T19:48:18.418Z,23.73
2019-04-21T19:50:53.007Z,17.30
2019-04-21T19:53:25.339Z,17.80
2019-04-21T19:55:40.375Z,19.33
2019-04-21T19:58:10.935Z,18.93
2019-04-21T20:00:42.226Z,18.47
2019-04-21T20:03:12.800Z,15.13
2019-04-21T20:05:49.518Z,20.50
2019-04-21T20:08:27.841Z,16.97
2019-04-21T20:11:03.869Z,14.33
2019-04-21T20:13:56.889Z,21.33
2019-04-21T20:16:12.914Z,14.07
2019-04-21T20:18:32.806Z,14.40
2019-04-21T20:20:56.407Z,14.53
2019-04-21T20:23:31.688Z,14.40
2019-04-21T20:26:02.721Z,16.53
2019-04-21T20:28:44.271Z,14.23
2019-04-21T20:31:23.604Z,14.60
2019-04-21T20:34:10.957Z,13.50
2019-04-21T20:36:29.024Z,15.60
2019-04-21T20:38:49.065Z,15.70
2019-04-21T20:41:29.762Z,14.00
2019-04-21T20:44:06.101Z,15.80
2019-04-21T20:46:37.222Z,13.83
2019-04-21T20:49:02.797Z,17.80
2019-04-21T20:51:40.443Z,16.63
2019-04-21T20:54:07.365Z,14.80
2019-04-21T20:56:41.985Z,14.53
2019-04-21T20:59:12.150Z,18.00
2019-04-21T21:01:45.739Z,18.47
2019-04-21T21:04:16.823Z,21.03
2019-04-21T21:06:52.626Z,17.50
2019-04-21T21:09:18.224Z,17.60
2019-04-21T21:12:09.944Z,18.13
2019-04-21T21:14:29.306Z,18.83
2019-04-21T21:17:06.503Z,19.33
2019-04-21T21:19:34.713Z,17.63
2019-04-21T21:21:59.167Z,20.40
2019-04-21T21:24:44.175Z,19.87
2019-04-21T21:27:10.319Z,19.47
2019-04-21T21:29:47.342Z,21.17
2019-04-21T21:32:20.710Z,18.97
2019-04-21T21:34:52.025Z,23.70
2019-04-21T21:37:27.861Z,22.67
2019-04-21T21:39:58.334Z,25.17
2019-04-21T21:42:08.070Z,22.13
2019-04-21T21:44:40.751Z,31.67
2019-04-21T21:47:23.978Z,25.77
2019-04-21T21:49:58.165Z,22.73
2019-04-21T21:52:25.893Z,22.87
2019-04-21T21:54:47.546Z,25.57
2019-04-21T21:57:18.590Z,25.70
2019-04-21T21:59:52.925Z,23.30
2019-04-21T22:02:31.915Z,23.13
2019-04-21T22:05:00.902Z,25.70
2019-04-21T22:07:31.031Z,27.03
2019-04-21T22:09:58.104Z,24.03
2019-04-21T22:12:35.013Z,25.77
2019-04-21T22:15:02.402Z,26.00
2019-04-21T22:17:51.145Z,25.80
2019-04-21T22:20:28.219Z,25.80
2019-04-21T22:22:49.821Z,32.77
2019-04-21T22:25:19.805Z,29.43
2019-04-21T22:27:43.508Z,29.40
2019-04-21T22:30:14.809Z,31.53
2019-04-21T22:32:52.786Z,31.57
2019-04-21T22:35:27.340Z,28.30
2019-04-21T22:38:03.495Z,32.77
2019-04-21T22:40:40.821Z,33.33
2019-04-21T22:43:09.963Z,33.40
2019-04-21T22:45:27.429Z,31.33
2019-04-21T22:48:03.966Z,32.73
2019-04-21T22:50:32.782Z,31.70
2019-04-21T22:53:07.289Z,31.10
2019-04-21T22:55:37.139Z,31.30
2019-04-21T22:58:07.833Z,30.77
2019-04-21T23:00:45.609Z,36.43
2019-04-21T23:03:16.388Z,31.93
2019-04-21T23:05:46.196Z,30.40
2019-04-21T23:08:17.138Z,33.73
2019-04-21T23:10:54.688Z,34.77
2019-04-21T23:13:23.371Z,29.90
2019-04-21T23:15:57.277Z,32.57
2019-04-21T23:18:40.014Z,28.30
2019-04-21T23:21:10.161Z,31.73
2019-04-21T23:23:49.915Z,31.37
2019-04-21T23:26:20.895Z,31.50
2019-04-21T23:28:53.505Z,32.13
2019-04-21T23:31:27.854Z,30.73
2019-04-21T23:33:36.786Z,30.17
2019-04-21T23:36:12.960Z,28.93
2019-04-21T23:38:44.268Z,31.57
2019-04-21T23:41:11.435Z,31.00
2019-04-21T23:43:44.753Z,32.43
2019-04-21T23:46:22.128Z,30.43
2019-04-21T23:49:02.461Z,33.53
2019-04-21T23:51:30.168Z,32.23
2019-04-21T23:53:51.241Z,30.63
2019-04-21T23:56:29.186Z,30.90
2019-04-21T23:58:59.841Z,30.90
